Time;durP1;ratioP1;P1;durP2;ratioP2;P2;SDS_P1;SDS_P2;PMS_P1;PMS_P2;Temp;Humidity;BMP_temperature;BMP_pressure;BME280_temperature;BME280_humidity;BME280_pressure;Samples;Min_cycle;Max_cycle;Signal;HPM_P1;HPM_P2
2023/11/17 00:01:15;;;;;;;15.53;9.07;;;8.00;99.90;;;;;;5072015;28;20201;-67
2023/11/17 00:03:41;;;;;;;11.37;8.40;;;7.90;99.90;;;;;;5072131;28;20162;-67
2023/11/17 00:06:07;;;;;;;13.90;9.40;;;7.90;99.90;;;;;;5071773;28;20162;-67
2023/11/17 00:08:33;;;;;;;13.53;8.43;;;7.80;99.90;;;;;;5071494;28;20197;-67
2023/11/17 00:10:58;;;;;;;18.23;7.93;;;7.80;99.90;;;;;;5072036;28;20487;-67
2023/11/17 00:13:24;;;;;;;13.27;8.17;;;7.70;99.90;;;;;;5071869;28;20437;-67
2023/11/17 00:15:51;;;;;;;12.90;7.60;;;7.70;99.90;;;;;;5071707;28;20162;-67
2023/11/17 00:18:17;;;;;;;11.10;6.70;;;7.70;99.90;;;;;;5072017;28;20182;-68
2023/11/17 00:20:43;;;;;;;18.03;8.03;;;7.70;99.90;;;;;;5071861;28;20450;-67
2023/11/17 00:23:09;;;;;;;13.20;7.77;;;7.60;99.90;;;;;;5053176;28;20424;-67
2023/11/17 00:25:34;;;;;;;11.43;7.30;;;7.50;99.90;;;;;;5071374;28;20174;-67
2023/11/17 00:28:00;;;;;;;10.23;6.90;;;7.50;99.90;;;;;;5053605;28;20206;-67
2023/11/17 00:30:25;;;;;;;9.90;7.10;;;7.40;99.90;;;;;;5071568;28;20196;-67
2023/11/17 00:32:51;;;;;;;10.50;8.17;;;7.30;99.90;;;;;;5053754;28;20162;-67
2023/11/17 00:35:16;;;;;;;9.83;7.57;;;7.30;99.90;;;;;;5053772;28;20670;-67
2023/11/17 00:37:43;;;;;;;10.20;7.50;;;7.20;99.90;;;;;;5071798;28;20726;-67
2023/11/17 00:40:10;;;;;;;8.10;6.77;;;7.20;99.90;;;;;;5071699;28;20182;-67
2023/11/17 00:42:36;;;;;;;12.63;7.33;;;7.10;99.90;;;;;;5053304;28;20412;-68
2023/11/17 00:45:03;;;;;;;7.97;6.40;;;7.10;99.90;;;;;;5071556;28;20405;-67
2023/11/17 00:47:29;;;;;;;7.13;6.07;;;7.00;99.90;;;;;;5053608;28;20198;-67
2023/11/17 00:49:55;;;;;;;12.03;6.53;;;7.00;99.90;;;;;;5071573;28;20451;-67
2023/11/17 00:52:20;;;;;;;10.60;6.63;;;6.90;99.90;;;;;;5071480;28;20424;-67
2023/11/17 00:54:47;;;;;;;9.60;6.50;;;6.90;99.90;;;;;;5071447;28;20167;-67
2023/11/17 00:57:13;;;;;;;8.13;5.90;;;6.80;99.90;;;;;;5071576;28;20247;-67
2023/11/17 00:59:39;;;;;;;6.70;5.60;;;6.80;99.90;;;;;;5053546;28;20531;-67
2023/11/17 01:02:05;;;;;;;12.00;7.53;;;6.70;99.90;;;;;;5071619;28;20557;-67
2023/11/17 01:04:31;;;;;;;12.90;6.37;;;6.70;99.90;;;;;;5071351;28;20408;-68
2023/11/17 01:06:58;;;;;;;7.37;6.20;;;6.70;99.90;;;;;;5071367;28;20444;-67
2023/11/17 01:09:25;;;;;;;10.97;8.30;;;6.60;99.90;;;;;;5071462;28;20424;-67
2023/11/17 01:11:51;;;;;;;12.43;6.87;;;6.60;99.90;;;;;;5071379;28;20401;-67
2023/11/17 01:14:17;;;;;;;10.90;6.60;;;6.50;99.90;;;;;;5071265;28;20400;-67
2023/11/17 01:16:44;;;;;;;10.57;6.53;;;6.50;99.90;;;;;;5071609;28;20415;-67
2023/11/17 01:19:09;;;;;;;9.07;6.53;;;6.50;99.90;;;;;;5071456;28;20534;-67
2023/11/17 01:21:35;;;;;;;15.07;7.27;;;6.50;99.90;;;;;;5074309;28;20440;-68
2023/11/17 01:24:02;;;;;;;12.10;8.30;;;6.40;99.90;;;;;;5074973;28;20174;-67
2023/11/17 01:26:28;;;;;;;9.67;7.40;;;6.40;99.90;;;;;;5075029;28;20245;-67
2023/11/17 01:28:54;;;;;;;13.40;8.97;;;6.40;99.90;;;;;;5074842;28;20509;-67
2023/11/17 01:31:21;;;;;;;12.17;6.47;;;6.40;99.90;;;;;;5074991;28;20416;-67
2023/11/17 01:33:48;;;;;;;10.43;7.27;;;6.40;99.90;;;;;;5074692;28;20483;-67
2023/11/17 01:36:20;;;;;;;13.13;7.93;;;6.40;99.90;;;;;;5056798;28;20754;-67
2023/11/17 01:38:46;;;;;;;9.03;6.50;;;6.30;99.90;;;;;;5074770;28;20423;-67
2023/11/17 01:41:12;;;;;;;11.40;6.80;;;6.40;99.90;;;;;;5074791;28;20412;-67
2023/11/17 01:43:38;;;;;;;11.20;8.20;;;6.40;99.90;;;;;;5074584;28;20408;-67
2023/11/17 01:46:05;;;;;;;14.40;8.37;;;6.40;99.90;;;;;;5074612;28;20412;-67
2023/11/17 01:48:33;;;;;;;11.17;6.87;;;6.40;99.90;;;;;;5074501;28;21043;-68
2023/11/17 01:51:00;;;;;;;14.23;7.60;;;6.40;99.90;;;;;;5074471;28;20396;-67
2023/11/17 01:53:26;;;;;;;12.43;8.07;;;6.40;99.90;;;;;;5074552;28;20427;-67
2023/11/17 01:55:53;;;;;;;15.30;8.23;;;6.40;99.90;;;;;;5074410;28;20420;-67
2023/11/17 01:58:19;;;;;;;12.90;6.50;;;6.40;99.90;;;;;;5074599;28;20422;-67
2023/11/17 02:00:44;;;;;;;10.73;8.20;;;6.40;99.90;;;;;;5074383;28;20495;-67
2023/11/17 02:03:10;;;;;;;13.07;7.33;;;6.40;99.90;;;;;;5074369;28;20688;-67
2023/11/17 02:05:35;;;;;;;8.90;7.17;;;6.50;99.90;;;;;;5074104;28;20705;-67
2023/11/17 02:08:23;;;;;;;12.13;8.23;;;6.40;99.90;;;;;;5074251;28;20194;-67
2023/11/17 02:11:20;;;;;;;9.27;6.90;;;6.40;99.90;;;;;;5074298;28;20154;-67
2023/11/17 02:14:07;;;;;;;11.00;7.40;;;6.40;99.90;;;;;;5074234;28;20431;-67
2023/11/17 02:16:36;;;;;;;10.70;8.03;;;6.40;99.90;;;;;;5074150;28;20491;-67
2023/11/17 02:19:09;;;;;;;10.40;8.43;;;6.40;99.90;;;;;;5055833;28;20427;-67
2023/11/17 02:21:36;;;;;;;10.80;9.00;;;6.40;99.90;;;;;;5074263;28;20420;-67
2023/11/17 02:24:06;;;;;;;11.60;7.83;;;6.40;99.90;;;;;;5073907;28;20389;-67
2023/11/17 02:26:42;;;;;;;11.07;8.20;;;6.40;99.90;;;;;;5073900;28;20887;-67
2023/11/17 02:29:27;;;;;;;23.67;9.57;;;6.30;99.90;;;;;;5073822;28;20434;-67
2023/11/17 02:31:55;;;;;;;16.63;8.80;;;6.30;99.90;;;;;;5072677;28;20488;-68
2023/11/17 02:34:25;;;;;;;13.03;8.53;;;6.30;99.90;;;;;;5073693;28;20396;-68
2023/11/17 02:36:52;;;;;;;13.10;8.80;;;6.20;99.90;;;;;;5073853;28;20846;-69
2023/11/17 02:39:26;;;;;;;16.23;9.57;;;6.20;99.90;;;;;;5073699;28;21009;-68
2023/11/17 02:41:57;;;;;;;16.63;9.83;;;6.20;99.90;;;;;;5056046;28;20937;-68
2023/11/17 02:44:28;;;;;;;8.53;7.53;;;6.10;99.90;;;;;;5073379;28;20951;-68
2023/11/17 02:46:58;;;;;;;11.10;8.50;;;6.10;99.90;;;;;;5073547;28;20531;-68
2023/11/17 02:49:29;;;;;;;10.30;8.53;;;6.00;99.90;;;;;;5073383;28;20809;-67
2023/11/17 02:51:55;;;;;;;13.90;8.80;;;6.00;99.90;;;;;;5073380;28;20806;-67
2023/11/17 02:54:27;;;;;;;16.50;9.10;;;6.00;99.90;;;;;;5073360;28;20447;-67
2023/11/17 02:56:54;;;;;;;11.80;8.13;;;5.90;99.90;;;;;;5055529;28;20919;-67
2023/11/17 02:59:21;;;;;;;14.57;8.00;;;5.90;99.90;;;;;;5073234;28;20416;-67
2023/11/17 03:01:47;;;;;;;11.90;8.80;;;5.90;99.90;;;;;;5073289;28;20413;-67
2023/11/17 03:04:16;;;;;;;17.27;9.63;;;5.80;99.90;;;;;;5073046;28;20794;-67
2023/11/17 03:06:49;;;;;;;14.00;8.97;;;5.80;99.90;;;;;;5072911;28;20197;-67
2023/11/17 03:09:22;;;;;;;11.17;8.63;;;5.70;99.90;;;;;;5073009;28;20444;-67
2023/11/17 03:11:49;;;;;;;14.30;8.03;;;5.50;99.90;;;;;;5073042;28;20533;-67
2023/11/17 03:14:15;;;;;;;12.67;7.67;;;5.50;99.90;;;;;;5072943;28;20396;-67
2023/11/17 03:16:41;;;;;;;16.37;9.80;;;5.50;99.90;;;;;;5073006;28;20499;-67
2023/11/17 03:19:10;;;;;;;14.60;8.17;;;5.30;99.90;;;;;;5072761;28;20174;-67
2023/11/17 03:21:42;;;;;;;12.50;8.00;;;5.20;99.90;;;;;;5072950;28;20215;-67
2023/11/17 03:24:27;;;;;;;14.33;8.17;;;5.20;99.90;;;;;;5072525;28;20384;-67
2023/11/17 03:26:55;;;;;;;11.47;9.37;;;5.20;99.90;;;;;;5072748;28;20965;-67
2023/11/17 03:29:21;;;;;;;11.27;8.37;;;5.20;99.90;;;;;;5072618;28;20482;-67
2023/11/17 03:31:49;;;;;;;9.40;7.57;;;5.10;99.90;;;;;;5072595;28;20413;-67
2023/11/17 03:34:33;;;;;;;12.83;8.17;;;5.10;99.90;;;;;;5071768;28;20779;-67
2023/11/17 03:37:03;;;;;;;12.47;8.43;;;5.00;99.90;;;;;;5054685;28;20420;-67
2023/11/17 03:39:40;;;;;;;16.40;10.30;;;5.00;99.90;;;;;;5072532;28;20428;-67
2023/11/17 03:42:09;;;;;;;19.00;7.63;;;5.00;99.90;;;;;;5072574;28;20538;-67
2023/11/17 03:44:36;;;;;;;11.07;7.50;;;4.90;99.90;;;;;;5072025;28;20412;-67
2023/11/17 03:47:06;;;;;;;15.03;8.17;;;4.90;99.90;;;;;;5072256;28;20455;-67
2023/11/17 03:49:32;;;;;;;11.93;8.10;;;4.80;99.90;;;;;;5054227;28;20428;-67
2023/11/17 03:51:58;;;;;;;13.43;7.77;;;4.80;99.90;;;;;;5072248;28;20526;-67
2023/11/17 03:54:24;;;;;;;16.73;9.93;;;4.80;99.90;;;;;;5072317;28;20884;-67
2023/11/17 03:56:52;;;;;;;18.73;9.87;;;4.70;99.90;;;;;;5054310;28;20431;-67
2023/11/17 03:59:18;;;;;;;12.03;9.43;;;4.70;99.90;;;;;;5072194;28;20189;-67
2023/11/17 04:01:44;;;;;;;21.47;11.00;;;4.70;99.90;;;;;;5072170;28;20410;-67
2023/11/17 04:04:10;;;;;;;17.77;10.80;;;4.50;99.90;;;;;;5053979;28;20495;-67
2023/11/17 04:06:36;;;;;;;19.90;10.50;;;4.60;99.90;;;;;;5072091;28;20166;-67
2023/11/17 04:09:04;;;;;;;11.60;9.17;;;4.50;99.90;;;;;;5071999;28;20657;-67
2023/11/17 04:11:31;;;;;;;19.03;9.67;;;4.60;99.90;;;;;;5072091;28;20648;-67
2023/11/17 04:13:57;;;;;;;16.83;9.70;;;4.70;99.90;;;;;;5072153;28;21016;-67
2023/11/17 04:16:22;;;;;;;16.07;10.60;;;4.80;99.90;;;;;;5071851;28;20495;-67
2023/11/17 04:18:48;;;;;;;20.40;12.00;;;4.90;99.90;;;;;;5071808;28;20186;-67
2023/11/17 04:21:14;;;;;;;18.27;10.20;;;5.00;99.90;;;;;;5071849;28;20158;-67
2023/11/17 04:23:40;;;;;;;22.03;11.00;;;5.00;99.90;;;;;;5071928;28;20467;-67
2023/11/17 04:26:06;;;;;;;17.43;10.20;;;5.00;99.90;;;;;;5072000;28;20404;-67
2023/11/17 04:28:32;;;;;;;15.43;10.43;;;5.10;99.90;;;;;;5071670;28;20209;-67
2023/11/17 04:30:58;;;;;;;20.37;10.77;;;5.00;99.90;;;;;;5071951;28;20162;-67
2023/11/17 04:33:24;;;;;;;14.00;9.20;;;5.00;99.90;;;;;;5071859;28;20783;-67
2023/11/17 04:35:49;;;;;;;21.03;10.67;;;5.10;99.90;;;;;;5071473;28;20170;-67
2023/11/17 04:38:15;;;;;;;13.33;10.00;;;5.20;99.90;;;;;;5071580;28;20217;-67
2023/11/17 04:40:40;;;;;;;14.90;9.97;;;5.20;99.90;;;;;;5071735;28;20174;-67
2023/11/17 04:43:06;;;;;;;17.77;11.00;;;5.30;99.90;;;;;;5071718;28;20633;-67
2023/11/17 04:45:36;;;;;;;18.47;11.27;;;5.30;99.90;;;;;;5071439;28;20721;-67
2023/11/17 04:48:04;;;;;;;18.53;10.70;;;5.40;99.90;;;;;;5071649;28;20194;-67
2023/11/17 04:50:33;;;;;;;16.87;10.50;;;5.40;99.90;;;;;;5053507;28;20428;-68
2023/11/17 04:52:59;;;;;;;24.30;13.00;;;5.50;99.90;;;;;;5071504;28;20424;-67
2023/11/17 04:55:24;;;;;;;22.97;12.67;;;5.60;99.90;;;;;;5072376;28;20779;-67
2023/11/17 04:57:50;;;;;;;24.40;13.10;;;5.70;99.90;;;;;;5075573;28;20181;-67
2023/11/17 05:00:16;;;;;;;28.10;14.00;;;5.80;99.90;;;;;;5075464;28;20204;-67
2023/11/17 05:02:42;;;;;;;38.53;16.77;;;5.70;99.90;;;;;;5075646;28;20166;-67
2023/11/17 05:05:11;;;;;;;36.30;15.20;;;5.80;99.90;;;;;;5075368;28;20775;-67
2023/11/17 05:07:45;;;;;;;25.57;14.40;;;5.90;99.90;;;;;;5075532;28;20443;-67
2023/11/17 05:10:13;;;;;;;33.30;14.30;;;5.90;99.90;;;;;;5075136;28;20421;-68
2023/11/17 05:12:42;;;;;;;28.27;14.47;;;6.00;99.90;;;;;;5075445;28;20415;-67
2023/11/17 05:15:12;;;;;;;33.27;15.97;;;6.00;99.90;;;;;;5075059;28;20420;-67
2023/11/17 05:17:50;;;;;;;41.10;18.53;;;6.00;99.90;;;;;;5075243;28;20412;-67
2023/11/17 05:20:18;;;;;;;33.50;15.40;;;5.90;99.90;;;;;;5075081;28;20476;-67
2023/11/17 05:22:45;;;;;;;45.63;19.17;;;6.00;99.90;;;;;;5075190;28;20412;-67
2023/11/17 05:25:12;;;;;;;36.73;17.13;;;5.90;99.90;;;;;;5074910;28;20775;-67
2023/11/17 05:27:38;;;;;;;31.20;16.53;;;5.80;99.90;;;;;;5074999;28;20459;-68
2023/11/17 05:30:06;;;;;;;33.03;15.37;;;5.80;99.90;;;;;;5074911;28;20973;-67
2023/11/17 05:32:32;;;;;;;36.60;17.40;;;5.80;99.90;;;;;;5074909;28;20396;-67
2023/11/17 05:34:58;;;;;;;34.47;15.37;;;5.80;99.90;;;;;;5074789;28;20407;-68
2023/11/17 05:37:25;;;;;;;40.23;17.63;;;5.80;99.90;;;;;;5075012;28;20529;-67
2023/11/17 05:39:50;;;;;;;39.50;17.90;;;5.70;99.90;;;;;;5074726;28;20494;-67
2023/11/17 05:42:16;;;;;;;36.27;19.50;;;5.70;99.90;;;;;;5074803;28;20412;-67
2023/11/17 05:44:42;;;;;;;46.23;19.40;;;5.50;99.90;;;;;;5074436;28;20522;-68
2023/11/17 05:47:08;;;;;;;44.30;18.50;;;5.40;99.90;;;;;;5074588;28;20194;-68
2023/11/17 05:49:41;;;;;;;37.03;18.70;;;5.40;99.90;;;;;;5074726;28;20650;-68
2023/11/17 05:52:07;;;;;;;42.17;19.50;;;5.50;99.90;;;;;;5074426;28;20381;-68
2023/11/17 05:54:33;;;;;;;33.57;16.73;;;5.60;99.90;;;;;;5074562;28;20446;-68
2023/11/17 05:56:59;;;;;;;31.60;15.80;;;5.60;99.90;;;;;;5074028;28;20400;-68
2023/11/17 05:59:24;;;;;;;27.23;15.23;;;5.70;99.90;;;;;;5074228;28;20182;-68
2023/11/17 06:01:51;;;;;;;31.97;17.40;;;5.70;99.90;;;;;;5056385;28;20177;-66
2023/11/17 06:04:16;;;;;;;34.80;16.17;;;5.80;99.90;;;;;;5074148;28;20168;-68
2023/11/17 06:06:42;;;;;;;39.63;18.20;;;5.80;99.90;;;;;;5074029;28;20887;-68
2023/11/17 06:09:12;;;;;;;34.63;16.90;;;5.80;99.90;;;;;;5074135;28;20178;-69
2023/11/17 06:11:39;;;;;;;42.27;18.97;;;5.90;99.90;;;;;;5074242;28;20677;-68
2023/11/17 06:14:05;;;;;;;40.80;18.00;;;5.90;99.90;;;;;;5074145;28;20404;-69
2023/11/17 06:16:31;;;;;;;36.57;18.13;;;5.90;99.90;;;;;;5074192;28;20411;-68
2023/11/17 06:18:56;;;;;;;33.30;18.47;;;5.90;99.90;;;;;;5074034;28;20182;-68
2023/11/17 06:21:22;;;;;;;35.47;16.90;;;6.00;99.90;;;;;;5074040;28;20898;-68
2023/11/17 06:23:48;;;;;;;33.13;16.53;;;6.00;99.90;;;;;;5074092;28;20166;-68
2023/11/17 06:26:14;;;;;;;34.53;17.87;;;6.00;99.90;;;;;;5073692;28;20158;-68
2023/11/17 06:28:39;;;;;;;34.03;15.43;;;6.10;99.90;;;;;;5073685;28;20992;-68
2023/11/17 06:31:06;;;;;;;31.57;16.50;;;6.10;99.90;;;;;;5073822;28;20655;-68
2023/11/17 06:33:32;;;;;;;33.37;16.47;;;6.10;99.90;;;;;;5073791;28;20579;-68
2023/11/17 06:36:00;;;;;;;36.17;17.60;;;6.20;99.90;;;;;;5073817;28;20403;-68
2023/11/17 06:38:26;;;;;;;38.83;17.90;;;6.20;99.90;;;;;;5073456;28;20413;-68
2023/11/17 06:40:51;;;;;;;36.50;17.53;;;6.30;99.90;;;;;;5073558;28;20393;-68
2023/11/17 06:43:19;;;;;;;31.80;15.20;;;6.30;99.90;;;;;;5055528;28;20173;-68
2023/11/17 06:45:52;;;;;;;42.53;20.37;;;6.40;99.90;;;;;;5073473;28;20170;-68
2023/11/17 06:48:18;;;;;;;35.93;17.13;;;6.40;99.90;;;;;;5073353;28;20863;-68
2023/11/17 06:50:44;;;;;;;29.37;15.40;;;6.50;99.90;;;;;;5073553;28;20800;-68
2023/11/17 06:53:12;;;;;;;33.47;16.57;;;6.50;99.90;;;;;;5073293;28;20439;-68
2023/11/17 06:55:38;;;;;;;30.60;16.53;;;6.60;99.90;;;;;;5073161;28;20265;-69
2023/11/17 06:58:04;;;;;;;28.67;16.50;;;6.50;99.90;;;;;;5073254;28;20414;-68
2023/11/17 07:00:30;;;;;;;32.30;16.50;;;6.50;99.90;;;;;;5073036;28;20424;-68
2023/11/17 07:02:57;;;;;;;24.80;14.23;;;6.40;99.90;;;;;;5073051;28;20417;-68
2023/11/17 07:05:24;;;;;;;23.60;14.10;;;6.40;99.90;;;;;;5072993;28;20492;-68
2023/11/17 07:07:52;;;;;;;24.23;13.87;;;6.40;99.90;;;;;;5073011;28;20536;-68
2023/11/17 07:10:18;;;;;;;26.67;15.43;;;6.40;99.90;;;;;;5072896;28;20412;-68
2023/11/17 07:12:45;;;;;;;24.73;13.37;;;6.30;99.90;;;;;;5072867;28;20393;-68
2023/11/17 07:15:13;;;;;;;33.67;16.17;;;6.40;99.90;;;;;;5072832;28;20831;-68
2023/11/17 07:17:42;;;;;;;26.63;14.63;;;6.40;99.90;;;;;;5072323;28;20400;-68
2023/11/17 07:20:11;;;;;;;35.23;17.23;;;6.30;99.90;;;;;;5072747;28;20489;-68
2023/11/17 07:22:38;;;;;;;36.50;16.77;;;6.30;99.90;;;;;;5072754;28;20408;-68
2023/11/17 07:25:04;;;;;;;35.20;17.67;;;6.30;99.90;;;;;;5072398;28;20554;-68
2023/11/17 07:27:30;;;;;;;31.00;18.03;;;6.20;99.90;;;;;;5072627;28;20978;-69
2023/11/17 07:29:57;;;;;;;36.00;17.27;;;6.30;99.90;;;;;;5054548;28;20428;-68
2023/11/17 07:32:22;;;;;;;35.00;16.13;;;6.30;99.90;;;;;;5072643;28;20168;-68
2023/11/17 07:34:48;;;;;;;30.13;15.40;;;6.30;99.90;;;;;;5054443;28;20939;-68
2023/11/17 07:37:14;;;;;;;27.77;16.73;;;6.30;99.90;;;;;;5072605;28;20170;-68
2023/11/17 07:39:39;;;;;;;32.43;17.53;;;6.30;99.90;;;;;;5072383;28;20182;-68
2023/11/17 07:42:05;;;;;;;26.70;16.50;;;6.30;99.90;;;;;;5072373;28;20540;-68
2023/11/17 07:44:30;;;;;;;31.33;15.47;;;6.30;99.90;;;;;;5072202;28;20170;-68
2023/11/17 07:46:58;;;;;;;30.00;16.67;;;6.30;99.90;;;;;;5072259;28;20200;-69
2023/11/17 07:49:25;;;;;;;31.57;17.40;;;6.20;99.90;;;;;;5072262;28;20186;-69
2023/11/17 07:51:53;;;;;;;38.73;17.93;;;6.30;99.90;;;;;;5072229;28;20412;-68
2023/11/17 07:54:19;;;;;;;32.30;15.87;;;6.40;99.90;;;;;;5072102;28;20767;-68
2023/11/17 07:56:46;;;;;;;42.10;20.80;;;6.50;99.90;;;;;;5072318;28;20380;-68
2023/11/17 07:59:12;;;;;;;33.40;16.60;;;6.50;99.90;;;;;;5072151;28;20787;-68
2023/11/17 08:01:39;;;;;;;37.53;17.80;;;6.60;99.90;;;;;;5072186;28;20392;-68
2023/11/17 08:04:05;;;;;;;37.93;19.20;;;6.70;99.90;;;;;;5072073;28;20158;-68
2023/11/17 08:06:31;;;;;;;36.30;17.47;;;6.80;99.90;;;;;;5053653;28;20400;-68
2023/11/17 08:08:56;;;;;;;44.90;18.60;;;6.90;99.90;;;;;;5071999;28;20424;-67
2023/11/17 08:11:25;;;;;;;31.90;17.97;;;6.90;99.90;;;;;;5071902;28;20189;-67
2023/11/17 08:13:51;;;;;;;34.37;18.80;;;6.80;99.90;;;;;;5071983;28;20154;-68
2023/11/17 08:16:17;;;;;;;37.47;18.37;;;6.90;99.90;;;;;;5071772;28;20400;-68
2023/11/17 08:18:45;;;;;;;34.47;17.17;;;7.10;99.90;;;;;;5071875;28;20434;-67
2023/11/17 08:21:13;;;;;;;44.03;20.33;;;7.20;99.90;;;;;;5053813;28;20181;-67
2023/11/17 08:23:39;;;;;;;35.30;19.33;;;7.20;99.90;;;;;;5072166;28;20900;-69
2023/11/17 08:26:05;;;;;;;39.13;19.67;;;7.30;99.90;;;;;;5071660;28;20415;-68
2023/11/17 08:28:32;;;;;;;41.33;20.07;;;7.40;99.90;;;;;;5071478;28;20456;-68
2023/11/17 08:30:58;;;;;;;35.43;18.90;;;7.50;99.90;;;;;;5071861;28;20170;-67
2023/11/17 08:33:24;;;;;;;34.87;20.23;;;7.60;99.90;;;;;;5071697;28;20401;-68
2023/11/17 08:35:50;;;;;;;45.47;21.60;;;7.80;99.90;;;;;;5071568;28;20190;-67
2023/11/17 08:38:16;;;;;;;43.80;19.53;;;7.90;99.90;;;;;;5071656;28;20452;-67
2023/11/17 08:40:44;;;;;;;43.87;20.67;;;7.90;99.90;;;;;;5071564;28;20458;-68
2023/11/17 08:43:10;;;;;;;41.90;19.30;;;8.10;99.90;;;;;;5071707;28;20419;-67
2023/11/17 08:45:36;;;;;;;42.40;20.87;;;8.10;99.90;;;;;;5071434;28;20895;-68
2023/11/17 08:48:02;;;;;;;38.57;20.30;;;8.20;99.90;;;;;;5071727;28;20857;-68
2023/11/17 08:50:28;;;;;;;33.53;20.10;;;8.10;99.90;;;;;;5071456;28;20623;-68
2023/11/17 08:52:54;;;;;;;35.20;16.60;;;8.20;99.90;;;;;;5071467;28;20503;-67
2023/11/17 08:55:23;;;;;;;41.53;20.33;;;8.30;99.90;;;;;;5053338;28;20170;-68
2023/11/17 08:57:48;;;;;;;41.00;21.47;;;8.30;99.90;;;;;;5071593;28;20633;-67
2023/11/17 09:00:18;;;;;;;36.20;18.80;;;8.40;99.90;;;;;;5071092;28;20424;-68
2023/11/17 09:02:46;;;;;;;34.83;17.90;;;8.40;99.90;;;;;;5053370;28;20234;-68
2023/11/17 09:05:16;;;;;;;31.77;17.00;;;8.50;99.90;;;;;;5071089;28;20416;-67
2023/11/17 09:07:44;;;;;;;34.13;17.10;;;8.50;99.90;;;;;;5071451;28;20448;-68
2023/11/17 09:10:14;;;;;;;25.30;14.10;;;8.50;99.90;;;;;;5071137;28;20428;-67
2023/11/17 09:12:42;;;;;;;27.97;14.67;;;8.50;99.90;;;;;;5053783;28;20436;-67
2023/11/17 09:15:12;;;;;;;28.77;15.30;;;8.60;99.90;;;;;;5071204;28;20407;-67
2023/11/17 09:17:40;;;;;;;28.87;15.80;;;8.60;99.90;;;;;;5071591;28;20523;-67
2023/11/17 09:20:09;;;;;;;30.53;16.67;;;8.70;99.90;;;;;;5071267;28;20893;-67
2023/11/17 09:22:36;;;;;;;28.07;16.10;;;8.70;99.90;;;;;;5071327;28;20404;-67
2023/11/17 09:25:14;;;;;;;32.43;17.13;;;8.70;99.90;;;;;;5052947;28;20408;-67
2023/11/17 09:27:41;;;;;;;21.77;13.80;;;8.70;99.90;;;;;;5071300;28;20452;-68
2023/11/17 09:30:12;;;;;;;30.23;15.07;;;8.70;99.90;;;;;;5071164;28;20911;-67
2023/11/17 09:32:44;;;;;;;31.00;16.97;;;8.80;99.90;;;;;;5071259;28;20424;-67
2023/11/17 09:35:15;;;;;;;33.27;16.30;;;8.60;99.90;;;;;;5071153;28;20393;-67
2023/11/17 09:37:53;;;;;;;32.17;16.73;;;8.70;99.90;;;;;;5071499;28;20396;-67
2023/11/17 09:40:24;;;;;;;33.77;16.90;;;8.60;99.90;;;;;;5053204;28;21117;-68
2023/11/17 09:42:54;;;;;;;29.17;17.97;;;8.70;99.90;;;;;;5074524;28;20760;-67
2023/11/17 09:45:25;;;;;;;30.60;17.17;;;8.70;99.90;;;;;;5074675;28;20415;-67
2023/11/17 09:47:57;;;;;;;28.97;16.73;;;8.70;99.90;;;;;;5074682;28;20444;-67
2023/11/17 09:50:27;;;;;;;27.07;17.17;;;8.60;99.90;;;;;;5074641;28;20431;-67
2023/11/17 09:52:54;;;;;;;28.93;15.30;;;8.70;99.90;;;;;;5074574;28;20450;-67
2023/11/17 09:55:21;;;;;;;29.80;17.67;;;8.70;99.90;;;;;;5074440;28;20414;-67
2023/11/17 09:57:54;;;;;;;27.60;14.93;;;8.80;99.90;;;;;;5074561;28;20435;-67
2023/11/17 10:00:22;;;;;;;28.07;15.90;;;8.80;99.90;;;;;;5074439;28;20489;-67
2023/11/17 10:02:56;;;;;;;29.73;16.57;;;8.90;99.90;;;;;;5074425;28;20416;-67
2023/11/17 10:05:28;;;;;;;39.37;18.27;;;8.90;99.90;;;;;;5074210;28;20397;-67
2023/11/17 10:07:55;;;;;;;24.20;13.90;;;8.90;99.90;;;;;;5074228;28;21001;-67
2023/11/17 10:10:22;;;;;;;28.93;15.57;;;9.00;99.90;;;;;;5074243;28;20420;-68
2023/11/17 10:12:50;;;;;;;25.80;15.73;;;9.00;99.90;;;;;;5074353;28;20762;-67
2023/11/17 10:15:19;;;;;;;29.10;16.33;;;9.00;99.90;;;;;;5074134;28;20408;-67
2023/11/17 10:17:48;;;;;;;32.70;17.47;;;9.10;99.90;;;;;;5074224;28;20479;-67
2023/11/17 10:20:18;;;;;;;33.30;16.97;;;9.10;99.90;;;;;;5074062;28;20480;-67
2023/11/17 10:22:51;;;;;;;28.97;17.33;;;9.00;99.90;;;;;;5073802;28;20454;-67
2023/11/17 10:25:24;;;;;;;28.00;15.67;;;9.00;99.90;;;;;;5073942;28;20918;-67
2023/11/17 10:27:51;;;;;;;35.90;17.83;;;9.10;99.90;;;;;;5073996;28;20463;-67
2023/11/17 10:30:17;;;;;;;31.07;17.57;;;9.10;99.90;;;;;;5073864;28;20422;-67
2023/11/17 10:32:53;;;;;;;33.70;17.77;;;9.10;99.90;;;;;;5073851;28;20834;-68
2023/11/17 10:35:24;;;;;;;32.20;17.93;;;9.10;99.90;;;;;;5073647;28;20483;-68
2023/11/17 10:37:58;;;;;;;34.80;17.80;;;9.10;99.90;;;;;;5073841;28;20466;-67
2023/11/17 10:40:34;;;;;;;30.90;18.43;;;9.10;99.90;;;;;;5055633;28;20485;-67
2023/11/17 10:43:09;;;;;;;30.37;18.00;;;9.00;99.90;;;;;;5055885;28;20841;-67
2023/11/17 10:45:37;;;;;;;32.03;18.77;;;9.00;99.90;;;;;;5073416;28;20404;-68
2023/11/17 10:48:07;;;;;;;30.80;17.80;;;9.10;99.90;;;;;;5073624;28;20463;-67
2023/11/17 10:50:37;;;;;;;24.43;15.70;;;9.10;99.90;;;;;;5073158;28;20392;-67
2023/11/17 10:53:24;;;;;;;28.10;17.80;;;9.10;99.90;;;;;;5054124;28;20943;-67
2023/11/17 10:55:53;;;;;;;35.73;17.47;;;9.20;99.90;;;;;;5073265;28;20409;-67
2023/11/17 10:58:19;;;;;;;29.57;17.23;;;9.20;99.90;;;;;;5073197;28;20561;-67
2023/11/17 11:00:46;;;;;;;38.27;17.90;;;9.20;99.90;;;;;;5073424;28;20767;-67
2023/11/17 11:03:13;;;;;;;31.33;17.37;;;9.10;99.90;;;;;;5055537;28;20419;-67
2023/11/17 11:05:43;;;;;;;28.90;17.80;;;9.10;99.90;;;;;;5072923;28;20938;-67
2023/11/17 11:08:18;;;;;;;34.20;18.77;;;9.30;99.90;;;;;;5073023;28;20491;-67
2023/11/17 11:10:55;;;;;;;28.50;16.60;;;9.30;99.90;;;;;;5073031;28;21059;-67
2023/11/17 11:13:29;;;;;;;31.43;17.00;;;9.50;99.90;;;;;;5073114;28;20467;-68
2023/11/17 11:16:05;;;;;;;25.50;15.80;;;9.70;99.90;;;;;;5072715;28;20407;-68
2023/11/17 11:18:35;;;;;;;29.77;18.07;;;9.90;99.90;;;;;;5055151;28;20974;-68
2023/11/17 11:21:03;;;;;;;26.00;16.77;;;10.00;99.90;;;;;;5072801;28;20403;-68
2023/11/17 11:23:29;;;;;;;27.00;16.47;;;10.10;99.90;;;;;;5072874;28;20411;-67
2023/11/17 11:25:55;;;;;;;29.53;17.00;;;10.20;99.90;;;;;;5072625;28;20442;-68
2023/11/17 11:28:21;;;;;;;28.10;14.17;;;10.30;99.90;;;;;;5072636;28;20528;-67
2023/11/17 11:30:49;;;;;;;27.17;16.73;;;10.40;99.90;;;;;;5072657;28;20934;-68
2023/11/17 11:33:20;;;;;;;24.30;16.27;;;10.40;99.90;;;;;;5072689;28;20538;-68
2023/11/17 11:35:45;;;;;;;24.60;15.50;;;10.40;99.90;;;;;;5054552;28;20903;-68
2023/11/17 11:38:11;;;;;;;22.97;15.43;;;10.50;99.90;;;;;;5072516;28;20407;-68
2023/11/17 11:40:41;;;;;;;25.00;14.80;;;10.50;99.90;;;;;;5072453;28;20180;-67
2023/11/17 11:43:07;;;;;;;27.13;17.23;;;10.50;99.90;;;;;;5072392;28;20170;-68
2023/11/17 11:45:34;;;;;;;26.57;15.30;;;10.60;99.90;;;;;;5072320;28;20772;-67
2023/11/17 11:48:01;;;;;;;32.57;16.40;;;10.60;99.90;;;;;;5072445;28;20251;-68
2023/11/17 11:50:34;;;;;;;25.63;15.40;;;10.70;99.90;;;;;;5071934;28;20798;-67
2023/11/17 11:53:32;;;;;;;27.93;16.60;;;10.80;99.90;;;;;;5072154;28;20424;-68
2023/11/17 11:56:02;;;;;;;28.27;16.20;;;10.90;99.90;;;;;;5071791;28;20388;-67
2023/11/17 11:58:28;;;;;;;28.17;17.20;;;11.00;99.90;;;;;;5072097;28;20542;-67
2023/11/17 12:00:54;;;;;;;23.63;13.80;;;11.10;99.90;;;;;;5072042;28;20428;-67
2023/11/17 12:03:20;;;;;;;25.07;13.60;;;11.10;99.90;;;;;;5072109;28;20173;-67
2023/11/17 12:05:46;;;;;;;21.17;12.83;;;11.20;99.90;;;;;;5071641;28;20407;-67
2023/11/17 12:08:23;;;;;;;23.90;14.40;;;11.20;99.90;;;;;;5071872;28;20540;-68
2023/11/17 12:10:55;;;;;;;25.13;14.77;;;11.30;99.90;;;;;;5072004;28;20400;-67
2023/11/17 12:13:43;;;;;;;26.90;15.20;;;11.30;99.90;;;;;;5072054;28;20462;-68
2023/11/17 12:16:14;;;;;;;24.30;15.03;;;11.30;99.90;;;;;;5071809;28;20483;-67
2023/11/17 12:18:44;;;;;;;21.83;13.63;;;11.30;99.90;;;;;;5071854;28;20456;-68
2023/11/17 12:21:20;;;;;;;26.13;14.57;;;11.20;99.90;;;;;;5071526;28;20412;-68
2023/11/17 12:23:57;;;;;;;23.83;14.43;;;11.20;99.90;;;;;;5071847;28;20457;-68
2023/11/17 12:26:26;;;;;;;23.90;14.17;;;11.10;99.90;;;;;;5071693;28;20401;-67
2023/11/17 12:28:53;;;;;;;19.60;12.87;;;11.10;99.90;;;;;;5071766;28;20543;-68
2023/11/17 12:31:20;;;;;;;24.53;15.10;;;11.00;99.90;;;;;;5071758;28;20396;-67
2023/11/17 12:33:49;;;;;;;29.13;15.80;;;11.00;99.90;;;;;;5071752;28;20393;-67
2023/11/17 12:36:25;;;;;;;33.60;17.27;;;11.00;99.90;;;;;;5071615;28;20404;-68
2023/11/17 12:38:55;;;;;;;29.10;17.40;;;10.90;99.90;;;;;;5071700;28;20530;-67
2023/11/17 12:41:23;;;;;;;33.27;18.70;;;10.90;99.90;;;;;;5071632;28;20409;-68
2023/11/17 12:43:50;;;;;;;24.40;15.40;;;11.00;99.90;;;;;;5071635;28;20400;-68
2023/11/17 12:46:16;;;;;;;34.63;17.77;;;11.00;99.90;;;;;;5071544;28;20470;-67